Weather History for KSYF - February, 2014

Change the Weather History Date:

Saturday, February 15, 2014

  Actual Average Record
Temperature  
Mean Temperature 42 °F -  
Max Temperature 52 °F 46 °F 52 °F (2014)
Min Temperature 31 °F 19 °F 12 °F (2013)
Degree Days  
Heating Degree Days 23    
Moisture  
Dew Point 27 °F    
Average Humidity 61    
Maximum Humidity 83    
Minimum Humidity 26    
Precipitation  
Precipitation 0.00 in - - ()
Sea Level Pressure  
Sea Level Pressure 29.94 in    
Wind  
Wind Speed 11 mph (WNW)    
Max Wind Speed 20 mph    
Max Gust Speed 28 mph    
Visibility 10 miles    
Events      
Averages and records for this station are not official NWS values.
T = Trace of Precipitation, MM = Missing Value Source: NWS Daily Summary

Daily Weather History Graph

Daily Weather History Graph

Search for Another Location

Airport or City:

Trip Planner

Search our weather history database for the weather conditions in past years. The results will help you decide how hot, cold, wet, or windy it might be!

Date:

Astronomy

Feb. 15, 2014 Rise Set
Actual Time 7:39 AM CST 6:23 PM CST
Civil Twilight 7:11 AM CST 6:51 PM CST
Nautical Twilight 6:40 AM CST 7:22 PM CST
Astronomical Twilight 6:09 AM CST 7:54 PM CST
Moon 7:25 PM CST (2/15) 7:39 AM CST (2/15)
Length of Visible Light 11h 39m
Length of Day
10h 43m
Waxing Gibbous, 99% of the Moon is Illuminated
Feb 15
Waxing Gibbous
Feb 22
Last Quarter
Mar 1
New
Mar 8
First Quarter
Mar 16
Full

Hourly Weather History & Observations

Time (CST) Temp. Windchill Dew Point Humidity Pressure Visibility Wind Dir Wind Speed Gust Speed Precip Events Conditions
12:15 AM 37.2 °F 29.1 °F 28.2 °F 70% 29.86 in 10.0 mi SSW 12.7 mph - N/A   Mostly Cloudy
12:35 AM 37.0 °F 29.8 °F 27.5 °F 68% 29.86 in 10.0 mi SSW 10.4 mph - N/A   Mostly Cloudy
12:55 AM 36.0 °F 29.0 °F 27.5 °F 71% 29.86 in 10.0 mi SSW 9.2 mph - N/A   Overcast
1:15 AM 36.5 °F 29.7 °F 27.0 °F 68% 29.85 in 10.0 mi SW 9.2 mph - N/A   Overcast
1:35 AM 36.3 °F 30.1 °F 27.0 °F 69% 29.85 in 10.0 mi SW 8.1 mph - N/A   Overcast
1:55 AM 37.4 °F 29.8 °F 25.9 °F 63% 29.83 in 10.0 mi SSW 11.5 mph 16.1 mph N/A   Overcast
2:15 AM 36.3 °F 29.5 °F 25.7 °F 65% 29.82 in 10.0 mi SW 9.2 mph - N/A   Mostly Cloudy
2:35 AM 35.8 °F 28.3 °F 25.3 °F 66% 29.81 in 10.0 mi SW 10.4 mph - N/A   Mostly Cloudy
2:55 AM 35.1 °F 26.4 °F 25.2 °F 67% 29.79 in 10.0 mi SW 12.7 mph - N/A   Scattered Clouds
3:15 AM 33.8 °F 24.3 °F 25.3 °F 71% 29.79 in 10.0 mi SW 13.8 mph - N/A   Scattered Clouds
3:35 AM 33.1 °F 23.0 °F 25.3 °F 73% 29.78 in 10.0 mi SW 15.0 mph - N/A   Scattered Clouds
3:55 AM 32.4 °F 23.0 °F 25.5 °F 76% 29.76 in 10.0 mi SSW 12.7 mph - N/A   Clear
4:15 AM 32.0 °F 23.0 °F 25.7 °F 78% 29.75 in 10.0 mi SW 11.5 mph - N/A   Clear
4:35 AM 33.1 °F 23.0 °F 25.7 °F 74% 29.74 in 10.0 mi SW 15.0 mph - N/A   Clear
4:55 AM 33.1 °F 23.0 °F 25.7 °F 74% 29.73 in 10.0 mi SW 15.0 mph - N/A   Clear
5:15 AM 33.1 °F 23.0 °F 25.7 °F 74% 29.73 in 10.0 mi SW 15.0 mph - N/A   Clear
5:35 AM 33.1 °F 23.4 °F 25.7 °F 74% 29.73 in 10.0 mi SW 13.8 mph - N/A   Clear
5:55 AM 33.4 °F 24.8 °F 25.7 °F 73% 29.74 in 10.0 mi WSW 11.5 mph - N/A   Clear
6:15 AM 32.9 °F 22.8 °F 26.2 °F 76% 29.74 in 10.0 mi SW 15.0 mph - N/A   Scattered Clouds
6:35 AM 33.1 °F 23.4 °F 26.4 °F 77% 29.73 in 10.0 mi SW 13.8 mph - N/A   Mostly Cloudy
6:55 AM 33.6 °F 24.6 °F 26.6 °F 75% 29.74 in 10.0 mi WSW 12.7 mph - N/A   Mostly Cloudy
7:15 AM 33.3 °F 26.4 °F 26.6 °F 77% 29.74 in 10.0 mi WSW 8.1 mph - N/A   Scattered Clouds
7:35 AM 34.0 °F 22.7 °F 27.3 °F 77% 29.79 in 10.0 mi North 19.6 mph 25.3 mph N/A   Mostly Cloudy
7:55 AM 36.9 °F - 28.8 °F 72% 29.78 in 10.0 mi Calm Calm - N/A   Overcast
8:15 AM 35.6 °F 29.2 °F 28.4 °F 75% 29.80 in 10.0 mi SW 8.1 mph - N/A   Scattered Clouds
8:35 AM 39.2 °F 35.0 °F 29.3 °F 68% 29.82 in 10.0 mi WSW 5.8 mph - N/A   Clear
8:55 AM 41.7 °F 37.3 °F 30.2 °F 64% 29.86 in 10.0 mi WNW 6.9 mph - N/A   Clear
9:15 AM 43.0 °F 36.0 °F 31.8 °F 65% 29.88 in 10.0 mi NNE 13.8 mph - N/A   Clear
9:35 AM 42.3 °F 36.8 °F 32.0 °F 67% 29.92 in 10.0 mi North 9.2 mph - N/A   Clear
9:55 AM 43.2 °F 35.6 °F 32.2 °F 65% 29.93 in 10.0 mi North 16.1 mph - N/A   Scattered Clouds
10:15 AM 42.8 °F 34.3 °F 32.0 °F 66% 29.94 in 10.0 mi North 19.6 mph 26.5 mph N/A   Scattered Clouds
10:35 AM 41.9 °F 34.0 °F 32.2 °F 68% 29.94 in 10.0 mi North 16.1 mph 21.9 mph N/A   Mostly Cloudy
10:55 AM 42.6 °F 35.2 °F 32.7 °F 68% 29.95 in 10.0 mi North 15.0 mph 18.4 mph N/A   Overcast
11:15 AM 44.1 °F 36.5 °F 33.1 °F 65% 29.94 in 10.0 mi North 17.3 mph - N/A   Mostly Cloudy
11:35 AM 43.7 °F 37.7 °F 33.3 °F 67% 29.96 in 10.0 mi North 11.5 mph 18.4 mph N/A   Mostly Cloudy
11:55 AM 45.5 °F 39.2 °F 34.0 °F 64% 29.97 in 10.0 mi NNW 13.8 mph 17.3 mph N/A   Scattered Clouds
12:15 PM 46.6 °F - 32.5 °F 58% 29.98 in 10.0 mi NNW 12.7 mph 23.0 mph N/A   Clear
12:35 PM 47.7 °F - 31.1 °F 53% 29.99 in 10.0 mi North 18.4 mph 27.6 mph N/A   Clear
12:55 PM 48.7 °F - 30.2 °F 49% 29.99 in 10.0 mi NNW 17.3 mph 24.2 mph N/A   Clear
1:15 PM 49.1 °F - 29.8 °F 47% 29.98 in 10.0 mi NNW 16.1 mph 24.2 mph N/A   Clear
1:35 PM 49.6 °F - 28.6 °F 44% 29.98 in 10.0 mi NNW 16.1 mph 25.3 mph N/A   Clear
1:55 PM 50.4 °F - 27.7 °F 42% 29.99 in 10.0 mi NNW 13.8 mph 21.9 mph N/A   Clear
2:15 PM 51.8 °F - 26.8 °F 38% 29.99 in 10.0 mi NNW 17.3 mph 26.5 mph N/A   Clear
2:35 PM 52.3 °F - 22.3 °F 31% 29.99 in 10.0 mi North 17.3 mph - N/A   Clear
2:55 PM 51.8 °F - 21.4 °F 30% 30.00 in 10.0 mi NNW 18.4 mph 23.0 mph N/A   Scattered Clouds
3:15 PM 52.0 °F - 21.2 °F 30% 30.00 in 10.0 mi NNW 17.3 mph 25.3 mph N/A   Clear
3:35 PM 51.8 °F - 21.9 °F 31% 30.01 in 10.0 mi NNW 17.3 mph 21.9 mph N/A   Clear
3:55 PM 52.0 °F - 17.8 °F 26% 30.02 in 10.0 mi North 16.1 mph 20.7 mph N/A   Clear
4:15 PM 51.1 °F - 19.0 °F 28% 30.03 in 10.0 mi NNW 12.7 mph 19.6 mph N/A   Clear
4:35 PM 50.5 °F - 18.5 °F 28% 30.03 in 10.0 mi NNW 11.5 mph 18.4 mph N/A   Clear
4:55 PM 49.5 °F - 18.9 °F 30% 30.03 in 10.0 mi NNW 10.4 mph - N/A   Scattered Clouds
5:15 PM 49.1 °F - 18.5 °F 30% 30.04 in 10.0 mi NNW 9.2 mph - N/A   Scattered Clouds
5:35 PM 47.5 °F - 21.4 °F 36% 30.05 in 10.0 mi North 11.5 mph - N/A   Scattered Clouds
5:55 PM 45.9 °F 43.6 °F 20.8 °F 37% 30.05 in 10.0 mi NNW 4.6 mph - N/A   Mostly Cloudy
6:15 PM 45.1 °F 43.7 °F 21.9 °F 40% 30.07 in 10.0 mi NW 3.5 mph - N/A   Overcast
6:35 PM 43.9 °F 39.9 °F 23.4 °F 44% 30.08 in 10.0 mi WNW 6.9 mph - N/A   Overcast
6:55 PM 41.4 °F 38.4 °F 24.6 °F 51% 30.08 in 10.0 mi West 4.6 mph - N/A   Mostly Cloudy
7:15 PM 42.1 °F 38.4 °F 24.4 °F 50% 30.08 in 10.0 mi NW 5.8 mph - N/A   Scattered Clouds
7:35 PM 39.2 °F 34.2 °F 26.2 °F 60% 30.08 in 10.0 mi WNW 6.9 mph - N/A   Clear
7:55 PM 38.7 °F 34.3 °F 27.1 °F 63% 30.08 in 10.0 mi WNW 5.8 mph - N/A   Clear
8:15 PM 36.9 °F 32.2 °F 27.0 °F 67% 30.08 in 10.0 mi West 5.8 mph - N/A   Clear
8:35 PM 37.9 °F 33.5 °F 26.8 °F 64% 30.08 in 10.0 mi WNW 5.8 mph - N/A   Clear
8:55 PM 34.9 °F 30.8 °F 26.6 °F 72% 30.08 in 10.0 mi SW 4.6 mph - N/A   Clear
9:15 PM 34.0 °F - 26.1 °F 73% 30.08 in 10.0 mi Calm Calm - N/A   Clear
9:35 PM 33.1 °F 26.1 °F 27.0 °F 78% 30.09 in 10.0 mi SSW 8.1 mph - N/A   Clear
9:55 PM 32.2 °F 26.7 °F 26.4 °F 79% 30.10 in 10.0 mi SW 5.8 mph - N/A   Clear
10:15 PM 32.9 °F 26.7 °F 27.1 °F 79% 30.09 in 10.0 mi SW 6.9 mph - N/A   Clear
10:35 PM 33.3 °F 27.9 °F 27.5 °F 79% 30.09 in 10.0 mi WSW 5.8 mph - N/A   Clear
10:55 PM 32.2 °F 25.8 °F 27.3 °F 82% 30.09 in 10.0 mi WSW 6.9 mph - N/A   Clear
11:15 PM 32.7 °F 25.7 °F 27.7 °F 82% 30.09 in 10.0 mi SW 8.1 mph - N/A   Clear
11:35 PM 32.4 °F 26.0 °F 27.5 °F 82% 30.10 in 10.0 mi WSW 6.9 mph - N/A   Clear
11:55 PM 31.6 °F 24.4 °F 27.1 °F 83% 30.08 in 10.0 mi WSW 8.1 mph - N/A   Clear